sensor_id;sensor_type;location;lat;lon;timestamp;temperature;humidity
27368;DHT22;14839;48.106;11.618;2023-07-20T04:01:17;18.00;94.60
27368;DHT22;14839;48.106;11.618;2023-07-20T04:03:43;18.00;94.60
27368;DHT22;14839;48.106;11.618;2023-07-20T04:06:09;18.00;94.60
27368;DHT22;14839;48.106;11.618;2023-07-20T04:08:36;17.90;94.60
27368;DHT22;14839;48.106;11.618;2023-07-20T04:11:02;17.90;94.60
27368;DHT22;14839;48.106;11.618;2023-07-20T04:13:27;17.90;94.60
27368;DHT22;14839;48.106;11.618;2023-07-20T04:15:54;17.90;94.60
27368;DHT22;14839;48.106;11.618;2023-07-20T04:18:20;17.90;94.60
27368;DHT22;14839;48.106;11.618;2023-07-20T04:20:46;17.80;94.60
27368;DHT22;14839;48.106;11.618;2023-07-20T04:23:12;17.80;94.60
27368;DHT22;14839;48.106;11.618;2023-07-20T04:25:39;17.80;94.60
27368;DHT22;14839;48.106;11.618;2023-07-20T04:28:06;17.80;94.60
27368;DHT22;14839;48.106;11.618;2023-07-20T04:30:34;17.80;94.60
27368;DHT22;14839;48.106;11.618;2023-07-20T04:33:01;17.80;94.60
27368;DHT22;14839;48.106;11.618;2023-07-20T04:35:51;17.80;94.60
27368;DHT22;14839;48.106;11.618;2023-07-20T04:38:18;17.90;94.60
27368;DHT22;14839;48.106;11.618;2023-07-20T04:40:48;17.90;94.60
27368;DHT22;14839;48.106;11.618;2023-07-20T04:43:14;17.90;94.60
27368;DHT22;14839;48.106;11.618;2023-07-20T04:45:40;17.90;94.60
27368;DHT22;14839;48.106;11.618;2023-07-20T04:48:11;17.90;94.60
27368;DHT22;14839;48.106;11.618;2023-07-20T04:50:37;17.80;94.60
27368;DHT22;14839;48.106;11.618;2023-07-20T04:53:03;17.90;94.60
27368;DHT22;14839;48.106;11.618;2023-07-20T04:55:29;18.00;94.60
27368;DHT22;14839;48.106;11.618;2023-07-20T04:57:54;18.00;94.60
27368;DHT22;14839;48.106;11.618;2023-07-20T05:00:20;18.10;94.60
27368;DHT22;14839;48.106;11.618;2023-07-20T05:02:47;18.10;94.60
27368;DHT22;14839;48.106;11.618;2023-07-20T05:05:15;18.20;94.60
27368;DHT22;14839;48.106;11.618;2023-07-20T05:07:40;18.20;94.60
27368;DHT22;14839;48.106;11.618;2023-07-20T05:10:06;18.20;94.60
27368;DHT22;14839;48.106;11.618;2023-07-20T05:12:32;18.30;94.60
27368;DHT22;14839;48.106;11.618;2023-07-20T05:14:58;18.30;94.60
27368;DHT22;14839;48.106;11.618;2023-07-20T05:17:23;18.30;94.60
27368;DHT22;14839;48.106;11.618;2023-07-20T05:19:50;18.40;94.60
27368;DHT22;14839;48.106;11.618;2023-07-20T05:22:16;18.40;94.60
27368;DHT22;14839;48.106;11.618;2023-07-20T05:24:41;18.50;94.60
27368;DHT22;14839;48.106;11.618;2023-07-20T05:27:07;18.60;94.60
27368;DHT22;14839;48.106;11.618;2023-07-20T05:29:33;18.60;94.60
27368;DHT22;14839;48.106;11.618;2023-07-20T05:31:58;18.60;94.60
27368;DHT22;14839;48.106;11.618;2023-07-20T05:34:24;18.60;94.60
27368;DHT22;14839;48.106;11.618;2023-07-20T05:36:49;18.60;94.60
27368;DHT22;14839;48.106;11.618;2023-07-20T05:39:17;18.60;94.60
27368;DHT22;14839;48.106;11.618;2023-07-20T05:41:43;18.60;94.60
27368;DHT22;14839;48.106;11.618;2023-07-20T05:44:09;18.70;94.60
27368;DHT22;14839;48.106;11.618;2023-07-20T05:46:34;18.70;94.60
27368;DHT22;14839;48.106;11.618;2023-07-20T05:49:00;18.70;94.60
27368;DHT22;14839;48.106;11.618;2023-07-20T05:51:26;18.80;94.60
27368;DHT22;14839;48.106;11.618;2023-07-20T05:53:51;18.80;94.60
27368;DHT22;14839;48.106;11.618;2023-07-20T05:56:17;18.90;94.60
27368;DHT22;14839;48.106;11.618;2023-07-20T05:58:42;19.00;94.60
27368;DHT22;14839;48.106;11.618;2023-07-20T06:01:08;19.10;94.60
27368;DHT22;14839;48.106;11.618;2023-07-20T06:03:34;19.20;94.40
27368;DHT22;14839;48.106;11.618;2023-07-20T06:06:00;19.20;93.20
27368;DHT22;14839;48.106;11.618;2023-07-20T06:08:28;19.20;92.00
27368;DHT22;14839;48.106;11.618;2023-07-20T06:10:54;19.20;90.30
27368;DHT22;14839;48.106;11.618;2023-07-20T06:13:19;19.30;90.20
27368;DHT22;14839;48.106;11.618;2023-07-20T06:15:45;19.30;88.10
27368;DHT22;14839;48.106;11.618;2023-07-20T06:18:10;19.50;87.10
27368;DHT22;14839;48.106;11.618;2023-07-20T06:20:36;19.70;85.60
27368;DHT22;14839;48.106;11.618;2023-07-20T06:23:01;19.90;84.40
27368;DHT22;14839;48.106;11.618;2023-07-20T06:25:27;20.00;81.70
27368;DHT22;14839;48.106;11.618;2023-07-20T06:27:54;20.20;79.90
27368;DHT22;14839;48.106;11.618;2023-07-20T06:30:20;20.40;81.10
27368;DHT22;14839;48.106;11.618;2023-07-20T06:32:46;20.60;87.50
27368;DHT22;14839;48.106;11.618;2023-07-20T06:35:15;21.40;88.70
27368;DHT22;14839;48.106;11.618;2023-07-20T06:37:41;22.20;82.60
27368;DHT22;14839;48.106;11.618;2023-07-20T06:40:07;22.30;81.70
27368;DHT22;14839;48.106;11.618;2023-07-20T06:42:34;21.90;79.00
27368;DHT22;14839;48.106;11.618;2023-07-20T06:45:00;21.40;77.20
27368;DHT22;14839;48.106;11.618;2023-07-20T06:47:25;21.10;81.80
27368;DHT22;14839;48.106;11.618;2023-07-20T06:49:51;20.90;79.40
27368;DHT22;14839;48.106;11.618;2023-07-20T06:52:17;20.70;76.40
27368;DHT22;14839;48.106;11.618;2023-07-20T06:54:42;20.50;79.10
27368;DHT22;14839;48.106;11.618;2023-07-20T06:57:08;20.50;80.80
27368;DHT22;14839;48.106;11.618;2023-07-20T06:59:33;20.40;78.80
27368;DHT22;14839;48.106;11.618;2023-07-20T07:01:59;20.80;74.50
27368;DHT22;14839;48.106;11.618;2023-07-20T07:04:25;21.50;74.00
27368;DHT22;14839;48.106;11.618;2023-07-20T07:06:50;22.40;74.80
27368;DHT22;14839;48.106;11.618;2023-07-20T07:09:16;22.90;70.30
27368;DHT22;14839;48.106;11.618;2023-07-20T07:11:41;23.10;68.00
27368;DHT22;14839;48.106;11.618;2023-07-20T07:14:07;23.10;69.20
27368;DHT22;14839;48.106;11.618;2023-07-20T07:16:32;23.30;67.60
27368;DHT22;14839;48.106;11.618;2023-07-20T07:18:58;23.60;65.20
27368;DHT22;14839;48.106;11.618;2023-07-20T07:21:24;23.50;65.30
27368;DHT22;14839;48.106;11.618;2023-07-20T07:23:53;24.10;63.70
27368;DHT22;14839;48.106;11.618;2023-07-20T07:26:23;25.00;60.00
27368;DHT22;14839;48.106;11.618;2023-07-20T07:28:48;25.60;58.10
27368;DHT22;14839;48.106;11.618;2023-07-20T07:31:14;26.00;58.90
27368;DHT22;14839;48.106;11.618;2023-07-20T07:33:40;26.90;57.50
27368;DHT22;14839;48.106;11.618;2023-07-20T07:36:06;27.50;55.40
27368;DHT22;14839;48.106;11.618;2023-07-20T07:38:31;27.80;53.80
27368;DHT22;14839;48.106;11.618;2023-07-20T07:40:58;28.00;52.00
27368;DHT22;14839;48.106;11.618;2023-07-20T07:43:23;27.60;52.00
27368;DHT22;14839;48.106;11.618;2023-07-20T07:45:49;27.20;52.60
27368;DHT22;14839;48.106;11.618;2023-07-20T07:48:15;26.50;51.40
27368;DHT22;14839;48.106;11.618;2023-07-20T07:50:40;25.50;57.30
27368;DHT22;14839;48.106;11.618;2023-07-20T07:53:07;25.20;56.60
27368;DHT22;14839;48.106;11.618;2023-07-20T07:55:34;25.30;58.10
27368;DHT22;14839;48.106;11.618;2023-07-20T07:58:00;25.10;57.80
27368;DHT22;14839;48.106;11.618;2023-07-20T08:00:29;24.90;59.80
27368;DHT22;14839;48.106;11.618;2023-07-20T08:02:55;25.10;56.40
27368;DHT22;14839;48.106;11.618;2023-07-20T08:05:20;25.10;57.20
27368;DHT22;14839;48.106;11.618;2023-07-20T08:07:46;24.90;59.80
27368;DHT22;14839;48.106;11.618;2023-07-20T08:10:11;24.60;58.50
27368;DHT22;14839;48.106;11.618;2023-07-20T08:12:37;24.30;59.70
27368;DHT22;14839;48.106;11.618;2023-07-20T08:15:03;24.10;58.40
27368;DHT22;14839;48.106;11.618;2023-07-20T08:17:29;24.10;61.90
27368;DHT22;14839;48.106;11.618;2023-07-20T08:19:55;24.50;62.30
27368;DHT22;14839;48.106;11.618;2023-07-20T08:22:24;25.00;62.00
27368;DHT22;14839;48.106;11.618;2023-07-20T08:24:50;25.20;62.00
27368;DHT22;14839;48.106;11.618;2023-07-20T08:27:16;25.70;60.80
27368;DHT22;14839;48.106;11.618;2023-07-20T08:29:41;25.90;59.10
27368;DHT22;14839;48.106;11.618;2023-07-20T08:32:07;26.10;57.90
27368;DHT22;14839;48.106;11.618;2023-07-20T08:34:32;26.00;54.10
27368;DHT22;14839;48.106;11.618;2023-07-20T08:36:59;25.70;56.30
27368;DHT22;14839;48.106;11.618;2023-07-20T08:39:27;25.50;56.00
27368;DHT22;14839;48.106;11.618;2023-07-20T08:41:55;25.00;59.50
27368;DHT22;14839;48.106;11.618;2023-07-20T08:44:21;24.60;59.40
27368;DHT22;14839;48.106;11.618;2023-07-20T08:46:49;24.50;60.50
27368;DHT22;14839;48.106;11.618;2023-07-20T08:49:16;24.60;60.80
27368;DHT22;14839;48.106;11.618;2023-07-20T08:51:43;24.80;60.80
27368;DHT22;14839;48.106;11.618;2023-07-20T08:54:12;25.00;57.30
27368;DHT22;14839;48.106;11.618;2023-07-20T08:56:38;25.00;58.50
27368;DHT22;14839;48.106;11.618;2023-07-20T08:59:07;25.00;58.50
27368;DHT22;14839;48.106;11.618;2023-07-20T09:01:34;25.00;57.30
27368;DHT22;14839;48.106;11.618;2023-07-20T09:04:01;25.00;60.80
27368;DHT22;14839;48.106;11.618;2023-07-20T09:06:27;25.10;59.50
27368;DHT22;14839;48.106;11.618;2023-07-20T09:08:53;25.30;57.50
27368;DHT22;14839;48.106;11.618;2023-07-20T09:11:18;25.50;61.60
27368;DHT22;14839;48.106;11.618;2023-07-20T09:13:46;25.80;61.00
27368;DHT22;14839;48.106;11.618;2023-07-20T09:16:16;26.40;54.40
27368;DHT22;14839;48.106;11.618;2023-07-20T09:18:41;26.70;54.40
27368;DHT22;14839;48.106;11.618;2023-07-20T09:21:07;26.80;56.10
27368;DHT22;14839;48.106;11.618;2023-07-20T09:23:37;26.50;54.40
27368;DHT22;14839;48.106;11.618;2023-07-20T09:26:12;26.50;54.20
27368;DHT22;14839;48.106;11.618;2023-07-20T09:29:06;26.70;56.30
27368;DHT22;14839;48.106;11.618;2023-07-20T09:31:32;26.90;55.30
27368;DHT22;14839;48.106;11.618;2023-07-20T09:33:58;26.80;52.40
27368;DHT22;14839;48.106;11.618;2023-07-20T09:36:24;26.50;55.00
27368;DHT22;14839;48.106;11.618;2023-07-20T09:38:51;26.30;54.50
27368;DHT22;14839;48.106;11.618;2023-07-20T09:41:18;26.60;55.70
27368;DHT22;14839;48.106;11.618;2023-07-20T09:43:47;26.90;53.30
27368;DHT22;14839;48.106;11.618;2023-07-20T09:46:12;27.00;50.20
27368;DHT22;14839;48.106;11.618;2023-07-20T09:48:54;26.60;54.40
27368;DHT22;14839;48.106;11.618;2023-07-20T09:51:23;26.10;55.00
27368;DHT22;14839;48.106;11.618;2023-07-20T09:53:52;25.80;54.20
27368;DHT22;14839;48.106;11.618;2023-07-20T09:56:21;25.70;54.50
27368;DHT22;14839;48.106;11.618;2023-07-20T09:58:48;25.90;54.20
27368;DHT22;14839;48.106;11.618;2023-07-20T10:01:20;26.00;54.10
27368;DHT22;14839;48.106;11.618;2023-07-20T10:03:47;25.80;53.50
27368;DHT22;14839;48.106;11.618;2023-07-20T10:06:19;25.60;55.70
27368;DHT22;14839;48.106;11.618;2023-07-20T10:08:47;25.30;55.30
27368;DHT22;14839;48.106;11.618;2023-07-20T10:11:16;25.20;57.50
27368;DHT22;14839;48.106;11.618;2023-07-20T10:13:43;25.10;57.30
27368;DHT22;14839;48.106;11.618;2023-07-20T10:16:22;25.20;55.80
27368;DHT22;14839;48.106;11.618;2023-07-20T10:19:05;25.30;55.30
27368;DHT22;14839;48.106;11.618;2023-07-20T10:21:35;25.40;56.10
27368;DHT22;14839;48.106;11.618;2023-07-20T10:24:02;25.50;55.70
27368;DHT22;14839;48.106;11.618;2023-07-20T10:26:29;25.40;57.90
27368;DHT22;14839;48.106;11.618;2023-07-20T10:28:54;25.30;55.30
27368;DHT22;14839;48.106;11.618;2023-07-20T10:31:22;25.30;56.30
27368;DHT22;14839;48.106;11.618;2023-07-20T10:33:48;25.40;59.20
27368;DHT22;14839;48.106;11.618;2023-07-20T10:36:16;25.40;57.20
27368;DHT22;14839;48.106;11.618;2023-07-20T10:43:48;24.80;56.90
27368;DHT22;14839;48.106;11.618;2023-07-20T10:46:14;24.90;57.80
27368;DHT22;14839;48.106;11.618;2023-07-20T10:48:59;24.90;58.20
27368;DHT22;14839;48.106;11.618;2023-07-20T10:51:24;25.10;57.30
27368;DHT22;14839;48.106;11.618;2023-07-20T10:53:50;25.30;58.80
27368;DHT22;14839;48.106;11.618;2023-07-20T10:56:22;25.70;57.30
27368;DHT22;14839;48.106;11.618;2023-07-20T10:58:47;26.00;56.60
27368;DHT22;14839;48.106;11.618;2023-07-20T11:01:15;26.20;57.50
27368;DHT22;14839;48.106;11.618;2023-07-20T11:03:41;26.30;56.00
27368;DHT22;14839;48.106;11.618;2023-07-20T11:06:30;26.30;54.50
27368;DHT22;14839;48.106;11.618;2023-07-20T11:09:09;26.30;55.10
27368;DHT22;14839;48.106;11.618;2023-07-20T11:11:41;26.30;54.10
27368;DHT22;14839;48.106;11.618;2023-07-20T11:14:24;26.50;54.70
27368;DHT22;14839;48.106;11.618;2023-07-20T11:16:51;26.60;55.80
27368;DHT22;14839;48.106;11.618;2023-07-20T11:19:18;26.50;53.80
27368;DHT22;14839;48.106;11.618;2023-07-20T11:21:46;26.40;53.80
27368;DHT22;14839;48.106;11.618;2023-07-20T11:24:12;26.20;55.30
27368;DHT22;14839;48.106;11.618;2023-07-20T11:26:45;26.00;55.10
27368;DHT22;14839;48.106;11.618;2023-07-20T11:29:12;26.00;56.40
27368;DHT22;14839;48.106;11.618;2023-07-20T11:31:40;25.80;54.80
27368;DHT22;14839;48.106;11.618;2023-07-20T11:34:06;25.60;55.70
27368;DHT22;14839;48.106;11.618;2023-07-20T11:36:33;25.50;56.00
27368;DHT22;14839;48.106;11.618;2023-07-20T11:38:59;25.40;57.00
27368;DHT22;14839;48.106;11.618;2023-07-20T11:41:25;25.40;57.90
27368;DHT22;14839;48.106;11.618;2023-07-20T11:43:52;25.50;57.20
27368;DHT22;14839;48.106;11.618;2023-07-20T11:46:19;25.40;56.40
27368;DHT22;14839;48.106;11.618;2023-07-20T11:48:45;25.40;56.90
27368;DHT22;14839;48.106;11.618;2023-07-20T11:51:16;25.60;57.80
27368;DHT22;14839;48.106;11.618;2023-07-20T11:53:47;25.60;56.10
27368;DHT22;14839;48.106;11.618;2023-07-20T11:56:12;25.70;54.50
27368;DHT22;14839;48.106;11.618;2023-07-20T11:58:45;25.70;55.40
27368;DHT22;14839;48.106;11.618;2023-07-20T12:01:15;25.50;53.00
27368;DHT22;14839;48.106;11.618;2023-07-20T12:03:42;25.40;55.30
27368;DHT22;14839;48.106;11.618;2023-07-20T12:06:09;25.50;56.30
27368;DHT22;14839;48.106;11.618;2023-07-20T12:08:37;25.70;54.70
27368;DHT22;14839;48.106;11.618;2023-07-20T12:11:03;25.70;52.60
27368;DHT22;14839;48.106;11.618;2023-07-20T12:13:38;25.80;54.50
27368;DHT22;14839;48.106;11.618;2023-07-20T12:16:18;25.90;54.70
27368;DHT22;14839;48.106;11.618;2023-07-20T12:18:44;26.20;55.30
27368;DHT22;14839;48.106;11.618;2023-07-20T12:21:10;26.40;54.10
27368;DHT22;14839;48.106;11.618;2023-07-20T12:23:40;26.50;53.80
27368;DHT22;14839;48.106;11.618;2023-07-20T12:26:10;26.60;53.00
27368;DHT22;14839;48.106;11.618;2023-07-20T12:28:39;26.60;52.20
27368;DHT22;14839;48.106;11.618;2023-07-20T12:31:07;26.70;53.00
27368;DHT22;14839;48.106;11.618;2023-07-20T12:33:32;26.80;53.80
27368;DHT22;14839;48.106;11.618;2023-07-20T12:35:59;26.90;51.90
27368;DHT22;14839;48.106;11.618;2023-07-20T12:38:25;27.00;50.70
27368;DHT22;14839;48.106;11.618;2023-07-20T12:40:53;26.90;52.40
27368;DHT22;14839;48.106;11.618;2023-07-20T12:43:20;26.90;53.00
27368;DHT22;14839;48.106;11.618;2023-07-20T12:45:46;27.00;52.30
27368;DHT22;14839;48.106;11.618;2023-07-20T12:48:12;26.90;52.20
27368;DHT22;14839;48.106;11.618;2023-07-20T12:50:37;26.70;51.30
27368;DHT22;14839;48.106;11.618;2023-07-20T12:53:03;26.60;52.90
27368;DHT22;14839;48.106;11.618;2023-07-20T12:55:29;26.60;53.20
27368;DHT22;14839;48.106;11.618;2023-07-20T12:57:54;26.60;54.40
27368;DHT22;14839;48.106;11.618;2023-07-20T13:00:20;26.50;52.20
27368;DHT22;14839;48.106;11.618;2023-07-20T13:02:51;26.20;53.00
27368;DHT22;14839;48.106;11.618;2023-07-20T13:05:17;25.90;52.90
27368;DHT22;14839;48.106;11.618;2023-07-20T13:07:42;26.00;55.00
27368;DHT22;14839;48.106;11.618;2023-07-20T13:10:09;26.10;55.40
27368;DHT22;14839;48.106;11.618;2023-07-20T13:12:35;26.20;54.10
27368;DHT22;14839;48.106;11.618;2023-07-20T13:15:02;26.40;54.80
27368;DHT22;14839;48.106;11.618;2023-07-20T13:17:37;26.50;52.90
27368;DHT22;14839;48.106;11.618;2023-07-20T13:20:05;26.70;53.50
27368;DHT22;14839;48.106;11.618;2023-07-20T13:22:32;26.80;52.40
27368;DHT22;14839;48.106;11.618;2023-07-20T13:24:57;26.80;52.00
27368;DHT22;14839;48.106;11.618;2023-07-20T13:27:23;26.70;50.80
27368;DHT22;14839;48.106;11.618;2023-07-20T13:29:51;26.50;52.40
27368;DHT22;14839;48.106;11.618;2023-07-20T13:32:16;26.70;51.10
27368;DHT22;14839;48.106;11.618;2023-07-20T13:34:43;26.60;52.20
27368;DHT22;14839;48.106;11.618;2023-07-20T13:37:09;26.50;52.30
27368;DHT22;14839;48.106;11.618;2023-07-20T13:39:35;26.40;52.70
27368;DHT22;14839;48.106;11.618;2023-07-20T13:42:00;26.30;52.90
27368;DHT22;14839;48.106;11.618;2023-07-20T13:44:33;26.30;52.30
27368;DHT22;14839;48.106;11.618;2023-07-20T13:47:00;26.30;53.80
27368;DHT22;14839;48.106;11.618;2023-07-20T13:49:26;26.30;51.90
27368;DHT22;14839;48.106;11.618;2023-07-20T13:51:51;26.10;51.60
27368;DHT22;14839;48.106;11.618;2023-07-20T13:54:17;26.00;52.20
27368;DHT22;14839;48.106;11.618;2023-07-20T13:56:42;25.80;52.60
27368;DHT22;14839;48.106;11.618;2023-07-20T13:59:08;25.80;53.80
27368;DHT22;14839;48.106;11.618;2023-07-20T14:01:33;25.80;52.20
27368;DHT22;14839;48.106;11.618;2023-07-20T14:04:01;25.70;53.90
27368;DHT22;14839;48.106;11.618;2023-07-20T14:06:30;25.70;52.40
27368;DHT22;14839;48.106;11.618;2023-07-20T14:08:56;25.70;53.00
27368;DHT22;14839;48.106;11.618;2023-07-20T14:11:22;25.60;53.90
27368;DHT22;14839;48.106;11.618;2023-07-20T14:13:47;25.70;52.00
27368;DHT22;14839;48.106;11.618;2023-07-20T14:16:13;25.70;53.00
27368;DHT22;14839;48.106;11.618;2023-07-20T14:18:39;25.90;54.40
27368;DHT22;14839;48.106;11.618;2023-07-20T14:21:05;26.10;52.60
27368;DHT22;14839;48.106;11.618;2023-07-20T14:23:32;26.20;52.40
27368;DHT22;14839;48.106;11.618;2023-07-20T14:25:58;26.20;52.40
27368;DHT22;14839;48.106;11.618;2023-07-20T14:28:24;26.20;51.70
27368;DHT22;14839;48.106;11.618;2023-07-20T14:30:50;26.30;51.40
27368;DHT22;14839;48.106;11.618;2023-07-20T14:33:15;26.30;52.20
27368;DHT22;14839;48.106;11.618;2023-07-20T14:35:41;26.20;51.70
27368;DHT22;14839;48.106;11.618;2023-07-20T14:38:06;26.10;52.30
27368;DHT22;14839;48.106;11.618;2023-07-20T14:40:32;26.20;52.30
27368;DHT22;14839;48.106;11.618;2023-07-20T14:42:58;26.30;53.30
27368;DHT22;14839;48.106;11.618;2023-07-20T14:45:29;26.30;51.60
27368;DHT22;14839;48.106;11.618;2023-07-20T14:47:54;26.40;52.00
27368;DHT22;14839;48.106;11.618;2023-07-20T14:50:20;26.50;52.20
27368;DHT22;14839;48.106;11.618;2023-07-20T14:52:46;26.50;51.10
27368;DHT22;14839;48.106;11.618;2023-07-20T14:55:12;26.40;50.10
27368;DHT22;14839;48.106;11.618;2023-07-20T14:57:38;26.30;50.70
27368;DHT22;14839;48.106;11.618;2023-07-20T15:00:05;26.30;51.90
27368;DHT22;14839;48.106;11.618;2023-07-20T15:02:33;26.20;51.70
27368;DHT22;14839;48.106;11.618;2023-07-20T15:04:59;26.20;52.20
27368;DHT22;14839;48.106;11.618;2023-07-20T15:07:25;26.20;52.70
27368;DHT22;14839;48.106;11.618;2023-07-20T15:09:51;26.20;51.00
27368;DHT22;14839;48.106;11.618;2023-07-20T15:12:17;26.20;52.60
27368;DHT22;14839;48.106;11.618;2023-07-20T15:14:43;26.30;52.90
27368;DHT22;14839;48.106;11.618;2023-07-20T15:17:10;26.30;52.00
27368;DHT22;14839;48.106;11.618;2023-07-20T15:19:35;26.20;52.20
27368;DHT22;14839;48.106;11.618;2023-07-20T15:22:02;26.20;53.30
27368;DHT22;14839;48.106;11.618;2023-07-20T15:24:29;26.20;53.30
27368;DHT22;14839;48.106;11.618;2023-07-20T15:26:54;26.10;52.60
27368;DHT22;14839;48.106;11.618;2023-07-20T15:29:20;26.10;52.00
27368;DHT22;14839;48.106;11.618;2023-07-20T15:31:46;26.00;52.30
27368;DHT22;14839;48.106;11.618;2023-07-20T15:34:12;26.10;54.20
27368;DHT22;14839;48.106;11.618;2023-07-20T15:36:39;26.10;54.20
27368;DHT22;14839;48.106;11.618;2023-07-20T15:39:06;26.10;54.50
27368;DHT22;14839;48.106;11.618;2023-07-20T15:41:31;26.10;51.10
27368;DHT22;14839;48.106;11.618;2023-07-20T15:43:57;26.00;52.40
27368;DHT22;14839;48.106;11.618;2023-07-20T15:49:04;25.90;51.90
27368;DHT22;14839;48.106;11.618;2023-07-20T15:51:30;25.80;53.00
27368;DHT22;14839;48.106;11.618;2023-07-20T15:53:56;25.80;52.90
27368;DHT22;14839;48.106;11.618;2023-07-20T15:56:21;25.90;53.00
27368;DHT22;14839;48.106;11.618;2023-07-20T15:58:47;25.90;53.20
27368;DHT22;14839;48.106;11.618;2023-07-20T16:01:12;25.90;51.70
27368;DHT22;14839;48.106;11.618;2023-07-20T16:03:38;25.90;52.40
27368;DHT22;14839;48.106;11.618;2023-07-20T16:06:04;25.80;51.70
27368;DHT22;14839;48.106;11.618;2023-07-20T16:08:30;25.70;53.00
27368;DHT22;14839;48.106;11.618;2023-07-20T16:10:56;25.70;53.90
27368;DHT22;14839;48.106;11.618;2023-07-20T16:13:23;25.80;52.90
27368;DHT22;14839;48.106;11.618;2023-07-20T16:15:52;25.90;54.10
27368;DHT22;14839;48.106;11.618;2023-07-20T16:18:18;25.80;53.80
27368;DHT22;14839;48.106;11.618;2023-07-20T16:20:43;25.90;53.60
27368;DHT22;14839;48.106;11.618;2023-07-20T16:23:10;25.90;54.50
27368;DHT22;14839;48.106;11.618;2023-07-20T16:25:36;26.00;52.60
27368;DHT22;14839;48.106;11.618;2023-07-20T16:28:02;26.00;51.90
27368;DHT22;14839;48.106;11.618;2023-07-20T16:30:29;25.80;53.00
27368;DHT22;14839;48.106;11.618;2023-07-20T16:32:55;25.80;52.90
27368;DHT22;14839;48.106;11.618;2023-07-20T16:35:21;25.80;53.60
27368;DHT22;14839;48.106;11.618;2023-07-20T16:37:46;25.70;53.50
27368;DHT22;14839;48.106;11.618;2023-07-20T16:40:12;25.70;54.20
27368;DHT22;14839;48.106;11.618;2023-07-20T16:42:38;25.50;55.50
27368;DHT22;14839;48.106;11.618;2023-07-20T16:45:04;25.40;53.80
27368;DHT22;14839;48.106;11.618;2023-07-20T16:47:30;25.30;53.80
27368;DHT22;14839;48.106;11.618;2023-07-20T16:49:56;25.20;54.40
27368;DHT22;14839;48.106;11.618;2023-07-20T16:52:21;25.10;54.80
27368;DHT22;14839;48.106;11.618;2023-07-20T16:54:47;25.10;55.80
27368;DHT22;14839;48.106;11.618;2023-07-20T16:57:13;25.10;55.30
27368;DHT22;14839;48.106;11.618;2023-07-20T16:59:38;25.00;53.20
27368;DHT22;14839;48.106;11.618;2023-07-20T17:02:04;24.90;54.70
27368;DHT22;14839;48.106;11.618;2023-07-20T17:04:30;25.00;54.40
27368;DHT22;14839;48.106;11.618;2023-07-20T17:06:56;25.20;55.00
27368;DHT22;14839;48.106;11.618;2023-07-20T17:09:24;25.30;54.20
27368;DHT22;14839;48.106;11.618;2023-07-20T17:11:50;25.40;53.60
27368;DHT22;14839;48.106;11.618;2023-07-20T17:14:15;25.40;53.50
27368;DHT22;14839;48.106;11.618;2023-07-20T17:16:41;25.40;53.80
27368;DHT22;14839;48.106;11.618;2023-07-20T17:19:06;25.40;54.10
27368;DHT22;14839;48.106;11.618;2023-07-20T17:21:33;25.20;54.20
27368;DHT22;14839;48.106;11.618;2023-07-20T17:24:01;25.20;55.10
27368;DHT22;14839;48.106;11.618;2023-07-20T17:26:26;25.20;55.70
27368;DHT22;14839;48.106;11.618;2023-07-20T17:28:52;25.20;54.40
27368;DHT22;14839;48.106;11.618;2023-07-20T17:31:19;25.20;53.60
27368;DHT22;14839;48.106;11.618;2023-07-20T17:33:46;25.20;54.50
27368;DHT22;14839;48.106;11.618;2023-07-20T17:36:12;25.00;54.70
27368;DHT22;14839;48.106;11.618;2023-07-20T17:38:37;25.00;53.90
27368;DHT22;14839;48.106;11.618;2023-07-20T17:41:04;24.90;54.40
27368;DHT22;14839;48.106;11.618;2023-07-20T17:43:31;24.80;54.80
27368;DHT22;14839;48.106;11.618;2023-07-20T17:45:56;24.60;54.20
27368;DHT22;14839;48.106;11.618;2023-07-20T17:48:22;24.50;55.50
27368;DHT22;14839;48.106;11.618;2023-07-20T17:50:48;24.40;57.60
27368;DHT22;14839;48.106;11.618;2023-07-20T17:53:14;24.40;56.10
27368;DHT22;14839;48.106;11.618;2023-07-20T17:55:40;24.40;56.30
27368;DHT22;14839;48.106;11.618;2023-07-20T17:58:06;24.30;57.30
27368;DHT22;14839;48.106;11.618;2023-07-20T18:00:32;24.30;56.60
27368;DHT22;14839;48.106;11.618;2023-07-20T18:02:57;24.30;55.80
27368;DHT22;14839;48.106;11.618;2023-07-20T18:05:24;24.20;55.10
27368;DHT22;14839;48.106;11.618;2023-07-20T18:07:49;24.10;55.40
27368;DHT22;14839;48.106;11.618;2023-07-20T18:10:15;24.10;55.00
27368;DHT22;14839;48.106;11.618;2023-07-20T18:12:41;23.90;55.70
27368;DHT22;14839;48.106;11.618;2023-07-20T18:15:07;23.80;56.00
27368;DHT22;14839;48.106;11.618;2023-07-20T18:17:35;23.80;57.00
27368;DHT22;14839;48.106;11.618;2023-07-20T18:20:02;23.80;57.30
27368;DHT22;14839;48.106;11.618;2023-07-20T18:22:28;23.70;57.30
27368;DHT22;14839;48.106;11.618;2023-07-20T18:24:53;23.60;55.40
27368;DHT22;14839;48.106;11.618;2023-07-20T18:27:19;23.60;56.60
27368;DHT22;14839;48.106;11.618;2023-07-20T18:29:45;23.50;56.10
27368;DHT22;14839;48.106;11.618;2023-07-20T18:32:10;23.50;57.20
27368;DHT22;14839;48.106;11.618;2023-07-20T18:34:36;23.40;57.50
27368;DHT22;14839;48.106;11.618;2023-07-20T18:37:02;23.40;57.50
27368;DHT22;14839;48.106;11.618;2023-07-20T18:39:29;23.30;57.00
27368;DHT22;14839;48.106;11.618;2023-07-20T18:41:56;23.30;57.90
27368;DHT22;14839;48.106;11.618;2023-07-20T18:44:22;23.20;58.80
27368;DHT22;14839;48.106;11.618;2023-07-20T18:46:47;23.10;60.00
27368;DHT22;14839;48.106;11.618;2023-07-20T18:49:13;23.00;58.90
27368;DHT22;14839;48.106;11.618;2023-07-20T18:51:39;23.00;59.40
27368;DHT22;14839;48.106;11.618;2023-07-20T18:54:04;22.90;59.70
27368;DHT22;14839;48.106;11.618;2023-07-20T18:56:30;22.80;60.70
27368;DHT22;14839;48.106;11.618;2023-07-20T18:58:55;22.70;59.20
27368;DHT22;14839;48.106;11.618;2023-07-20T19:01:24;22.60;59.20
27368;DHT22;14839;48.106;11.618;2023-07-20T19:03:49;22.50;59.80
27368;DHT22;14839;48.106;11.618;2023-07-20T19:06:15;22.40;59.40
27368;DHT22;14839;48.106;11.618;2023-07-20T19:08:41;22.40;61.60
27368;DHT22;14839;48.106;11.618;2023-07-20T19:11:10;22.40;61.40
27368;DHT22;14839;48.106;11.618;2023-07-20T19:13:36;22.40;63.80
27368;DHT22;14839;48.106;11.618;2023-07-20T19:16:02;22.30;61.60
27368;DHT22;14839;48.106;11.618;2023-07-20T19:18:33;22.20;62.50
27368;DHT22;14839;48.106;11.618;2023-07-20T19:21:00;22.20;62.80